createdAt,value
2023-04-24T00:02:12.384Z,19.04
2023-04-24T00:07:34.601Z,19.03
2023-04-24T00:12:56.422Z,19.01
2023-04-24T00:18:19.063Z,18.98
2023-04-24T00:23:40.922Z,18.97
2023-04-24T00:29:02.751Z,18.94
2023-04-24T00:34:24.706Z,18.92
2023-04-24T00:39:46.547Z,18.92
2023-04-24T00:45:09.121Z,18.90
2023-04-24T00:50:31.759Z,18.88
2023-04-24T00:55:53.809Z,18.87
2023-04-24T01:01:15.866Z,18.86
2023-04-24T01:06:40.181Z,18.86
2023-04-24T01:12:02.762Z,18.84
2023-04-24T01:17:24.598Z,18.82
2023-04-24T01:22:46.667Z,18.81
2023-04-24T01:28:08.709Z,18.80
2023-04-24T01:33:30.740Z,18.79
2023-04-24T01:38:52.821Z,18.77
2023-04-24T01:44:15.501Z,18.76
2023-04-24T01:49:39.920Z,18.75
2023-04-24T01:55:02.064Z,18.75
2023-04-24T02:00:24.259Z,18.73
2023-04-24T02:05:46.527Z,18.72
2023-04-24T02:11:10.739Z,18.71
2023-04-24T02:16:34.196Z,18.71
2023-04-24T02:21:56.193Z,18.70
2023-04-24T02:27:17.982Z,18.70
2023-04-24T02:32:40.389Z,18.68
2023-04-24T02:38:02.407Z,18.66
2023-04-24T02:43:24.265Z,18.65
2023-04-24T02:48:46.076Z,18.64
2023-04-24T02:54:09.606Z,18.63
2023-04-24T02:59:31.569Z,18.62
2023-04-24T03:04:53.376Z,18.60
2023-04-24T03:10:15.151Z,18.59
2023-04-24T03:15:36.935Z,18.58
2023-04-24T03:20:59.004Z,18.56
2023-04-24T03:26:21.126Z,18.56
2023-04-24T03:31:43.028Z,18.54
2023-04-24T03:37:04.953Z,18.54
2023-04-24T03:42:26.735Z,18.53
2023-04-24T03:47:48.595Z,18.51
2023-04-24T03:53:10.531Z,18.51
2023-04-24T03:58:32.442Z,18.50
2023-04-24T04:03:54.377Z,18.50
2023-04-24T04:09:16.504Z,18.49
2023-04-24T04:14:38.363Z,18.48
2023-04-24T04:20:00.156Z,18.48
2023-04-24T04:25:22.080Z,18.45
2023-04-24T04:30:43.951Z,18.45
2023-04-24T04:36:05.949Z,18.43
2023-04-24T04:41:27.793Z,18.42
2023-04-24T04:46:49.826Z,18.40
2023-04-24T04:52:11.859Z,18.39
2023-04-24T04:57:33.727Z,18.39
2023-04-24T05:03:03.095Z,18.37
2023-04-24T05:08:31.101Z,18.39
2023-04-24T05:13:52.876Z,18.65
2023-04-24T05:19:15.919Z,18.93
2023-04-24T05:24:37.987Z,19.13
2023-04-24T05:29:59.889Z,19.28
2023-04-24T05:35:21.758Z,19.34
2023-04-24T05:40:43.803Z,19.34
2023-04-24T05:46:06.033Z,19.32
2023-04-24T05:51:27.866Z,19.27
2023-04-24T05:56:51.055Z,19.21
2023-04-24T06:02:12.982Z,19.14
2023-04-24T06:07:35.269Z,19.08
2023-04-24T06:13:01.443Z,19.01
2023-04-24T06:18:23.376Z,18.95
2023-04-24T06:23:45.332Z,18.90
2023-04-24T06:29:08.652Z,18.86
2023-04-24T06:34:32.039Z,18.83
2023-04-24T06:39:53.837Z,18.78
2023-04-24T06:45:15.907Z,18.74
2023-04-24T06:50:37.737Z,18.75
2023-04-24T06:55:59.589Z,18.79
2023-04-24T07:01:21.507Z,18.88
2023-04-24T07:06:43.489Z,18.99
2023-04-24T07:12:05.379Z,19.08
2023-04-24T07:17:27.267Z,19.17
2023-04-24T07:22:50.400Z,19.24
2023-04-24T07:28:12.282Z,19.32
2023-04-24T07:33:34.090Z,19.38
2023-04-24T07:38:56.852Z,19.40
2023-04-24T07:44:18.880Z,19.40
2023-04-24T07:49:40.709Z,19.40
2023-04-24T07:55:03.511Z,19.40
2023-04-24T08:00:25.378Z,19.39
2023-04-24T08:05:47.376Z,19.40
2023-04-24T08:11:09.288Z,19.43
2023-04-24T08:16:31.607Z,19.50
2023-04-24T08:21:53.528Z,19.55
2023-04-24T08:27:15.593Z,19.57
2023-04-24T08:32:38.352Z,19.60
2023-04-24T08:38:00.143Z,19.63
2023-04-24T08:43:24.353Z,19.64
2023-04-24T08:48:46.941Z,19.55
2023-04-24T08:54:09.477Z,19.49
2023-04-24T08:59:35.080Z,19.43
2023-04-24T09:04:57.389Z,19.32
2023-04-24T09:10:19.482Z,19.30
2023-04-24T09:15:42.401Z,19.25
2023-04-24T09:21:08.382Z,19.24
2023-04-24T09:26:37.919Z,19.28
2023-04-24T09:32:00.192Z,19.22
2023-04-24T09:37:31.488Z,19.22
2023-04-24T09:42:56.721Z,19.18
2023-04-24T09:48:18.540Z,19.14
2023-04-24T09:53:43.422Z,19.13
2023-04-24T09:59:08.672Z,19.11
2023-04-24T10:04:31.048Z,19.07
2023-04-24T10:09:53.037Z,19.05
2023-04-24T10:15:15.814Z,19.06
2023-04-24T10:20:39.411Z,19.08
2023-04-24T10:26:01.831Z,19.06
2023-04-24T10:31:23.966Z,19.05
2023-04-24T10:36:54.299Z,19.07
2023-04-24T10:42:18.087Z,19.05
2023-04-24T10:47:43.514Z,19.02
2023-04-24T10:53:16.536Z,18.99
2023-04-24T10:58:39.508Z,18.97
2023-04-24T11:04:06.135Z,18.95
2023-04-24T11:09:29.971Z,18.96
2023-04-24T11:15:00.988Z,18.99
2023-04-24T11:20:28.215Z,18.99
2023-04-24T11:26:36.883Z,19.01
2023-04-24T11:32:16.243Z,19.03
2023-04-24T11:37:40.475Z,19.05
2023-04-24T11:43:02.382Z,19.08
2023-04-24T11:48:24.196Z,19.10
2023-04-24T11:53:47.740Z,19.12
2023-04-24T11:59:11.777Z,19.10
2023-04-24T12:04:41.967Z,19.12
2023-04-24T12:10:06.958Z,19.11
2023-04-24T12:15:29.903Z,19.11
2023-04-24T12:20:51.704Z,19.10
2023-04-24T12:26:18.049Z,19.10
2023-04-24T12:31:39.889Z,19.08
2023-04-24T12:37:12.353Z,19.11
2023-04-24T12:42:35.032Z,19.11
2023-04-24T12:47:56.936Z,19.10
2023-04-24T12:53:18.818Z,19.10
2023-04-24T12:58:40.655Z,19.12
2023-04-24T13:04:02.576Z,19.12
2023-04-24T13:09:25.014Z,19.15
2023-04-24T13:14:47.066Z,19.15
2023-04-24T13:20:09.217Z,19.17
2023-04-24T13:25:36.754Z,19.18
2023-04-24T13:30:58.617Z,19.18
2023-04-24T13:36:20.548Z,19.18
2023-04-24T13:41:42.477Z,19.16
2023-04-24T13:47:04.310Z,19.17
2023-04-24T13:52:26.251Z,19.16
2023-04-24T13:57:48.107Z,19.18
2023-04-24T14:03:10.205Z,19.17
2023-04-24T14:08:32.043Z,19.17
2023-04-24T14:13:55.782Z,19.15
2023-04-24T14:19:17.649Z,19.15
2023-04-24T14:24:39.474Z,19.12
2023-04-24T14:30:01.649Z,19.12
2023-04-24T14:35:23.699Z,19.13
2023-04-24T14:41:05.507Z,19.17
2023-04-24T14:46:27.332Z,19.20
2023-04-24T14:51:49.749Z,19.24
2023-04-24T14:57:12.116Z,19.32
2023-04-24T15:02:34.811Z,19.36
2023-04-24T15:07:56.943Z,19.44
2023-04-24T15:13:18.728Z,19.50
2023-04-24T15:18:40.517Z,19.52
2023-04-24T15:24:02.315Z,19.55
2023-04-24T15:29:24.151Z,19.57
2023-04-24T15:34:46.053Z,19.60
2023-04-24T15:40:11.738Z,19.65
2023-04-24T15:45:34.368Z,19.65
2023-04-24T15:50:56.523Z,19.64
2023-04-24T15:56:18.675Z,19.66
2023-04-24T16:01:41.364Z,19.66
2023-04-24T16:07:03.549Z,19.68
2023-04-24T16:12:27.994Z,19.65
2023-04-24T16:17:50.610Z,19.59
2023-04-24T16:23:12.584Z,19.53
2023-04-24T16:28:34.331Z,19.51
2023-04-24T16:33:56.076Z,19.47
2023-04-24T16:39:18.035Z,19.51
2023-04-24T16:44:40.687Z,19.64
2023-04-24T16:50:02.530Z,19.78
2023-04-24T16:55:25.424Z,19.86
2023-04-24T17:00:48.910Z,19.88
2023-04-24T17:06:10.826Z,19.86
2023-04-24T17:11:32.612Z,19.80
2023-04-24T17:16:54.603Z,19.76
2023-04-24T17:22:16.522Z,19.79
2023-04-24T17:27:38.343Z,19.83
2023-04-24T17:33:00.206Z,19.89
2023-04-24T17:38:22.170Z,19.92
2023-04-24T17:43:45.999Z,19.94
2023-04-24T17:49:08.062Z,19.89
2023-04-24T17:54:29.956Z,19.87
2023-04-24T17:59:51.888Z,19.81
2023-04-24T18:05:13.674Z,19.76
2023-04-24T18:10:38.649Z,19.76
2023-04-24T18:16:00.594Z,19.74
2023-04-24T18:21:23.900Z,19.68
2023-04-24T18:26:45.811Z,19.62
2023-04-24T18:32:10.670Z,19.60
2023-04-24T18:37:33.759Z,19.61
2023-04-24T18:42:56.965Z,19.75
2023-04-24T18:48:18.791Z,19.99
2023-04-24T18:53:40.891Z,20.26
2023-04-24T18:59:02.790Z,20.52
2023-04-24T19:04:24.685Z,20.75
2023-04-24T19:09:46.665Z,20.95
2023-04-24T19:15:11.983Z,21.12
2023-04-24T19:20:34.214Z,21.24
2023-04-24T19:25:56.153Z,21.32
2023-04-24T19:31:17.957Z,21.39
2023-04-24T19:36:39.811Z,21.41
2023-04-24T19:42:03.736Z,21.34
2023-04-24T19:47:27.340Z,21.21
2023-04-24T19:52:49.576Z,21.07
2023-04-24T19:58:11.446Z,20.90
2023-04-24T20:03:34.253Z,20.76
2023-04-24T20:08:56.701Z,20.62
2023-04-24T20:14:18.549Z,20.45
2023-04-24T20:19:41.206Z,20.35
2023-04-24T20:25:03.454Z,20.28
2023-04-24T20:30:25.779Z,20.23
2023-04-24T20:35:48.147Z,20.15
2023-04-24T20:41:10.751Z,20.10
2023-04-24T20:46:33.703Z,20.09
2023-04-24T20:51:55.599Z,20.08
2023-04-24T20:57:17.399Z,20.06
2023-04-24T21:02:39.326Z,20.02
2023-04-24T21:08:01.425Z,20.02
2023-04-24T21:13:23.408Z,19.98
2023-04-24T21:18:45.684Z,19.96
2023-04-24T21:24:07.628Z,19.96
2023-04-24T21:29:29.556Z,19.93
2023-04-24T21:34:51.385Z,19.91
2023-04-24T21:40:13.390Z,19.90
2023-04-24T21:45:35.249Z,19.88
2023-04-24T21:50:57.091Z,19.86
2023-04-24T21:56:18.969Z,19.84
2023-04-24T22:01:40.827Z,19.83
2023-04-24T22:07:02.703Z,19.80
2023-04-24T22:12:24.585Z,19.75
2023-04-24T22:17:46.417Z,19.66
2023-04-24T22:23:08.241Z,19.61
2023-04-24T22:28:30.100Z,19.55
2023-04-24T22:33:52.180Z,19.50
2023-04-24T22:39:17.689Z,19.44
2023-04-24T22:44:39.493Z,19.38
2023-04-24T22:50:01.383Z,19.35
2023-04-24T22:55:23.137Z,19.31
2023-04-24T23:00:44.975Z,19.26
2023-04-24T23:06:06.972Z,19.22
2023-04-24T23:11:28.779Z,19.20
2023-04-24T23:16:51.031Z,19.18
2023-04-24T23:22:12.973Z,19.16
2023-04-24T23:27:35.739Z,19.12
2023-04-24T23:32:57.595Z,19.09
2023-04-24T23:38:19.472Z,19.06
2023-04-24T23:43:41.354Z,19.04
2023-04-24T23:49:07.294Z,19.02
2023-04-24T23:54:29.145Z,18.99
2023-04-24T23:59:51.043Z,18.98
